createdAt,value
2023-09-20T00:01:16.060Z,4.50
2023-09-20T00:03:44.603Z,4.82
2023-09-20T00:06:12.218Z,4.43
2023-09-20T00:08:39.456Z,4.15
2023-09-20T00:11:09.794Z,4.68
2023-09-20T00:13:37.430Z,3.78
2023-09-20T00:16:04.747Z,4.10
2023-09-20T00:18:31.737Z,4.43
2023-09-20T00:21:02.565Z,4.18
2023-09-20T00:23:31.066Z,4.32
2023-09-20T00:25:58.602Z,4.22
2023-09-20T00:28:25.665Z,4.10
2023-09-20T00:30:54.365Z,4.25
2023-09-20T00:33:21.585Z,4.45
2023-09-20T00:35:48.510Z,4.10
2023-09-20T00:38:19.317Z,4.00
2023-09-20T00:40:48.467Z,4.25
2023-09-20T00:43:23.957Z,4.30
2023-09-20T00:45:51.611Z,4.70
2023-09-20T00:48:20.320Z,4.30
2023-09-20T00:50:49.288Z,4.25
2023-09-20T00:53:16.548Z,4.30
2023-09-20T00:55:44.033Z,4.28
2023-09-20T00:58:21.070Z,3.90
2023-09-20T01:00:48.705Z,3.80
2023-09-20T01:03:20.702Z,4.20
2023-09-20T01:05:50.883Z,4.30
2023-09-20T01:08:19.265Z,4.10
2023-09-20T01:10:48.055Z,3.97
2023-09-20T01:13:19.991Z,4.30
2023-09-20T01:15:47.668Z,3.72
2023-09-20T01:18:14.714Z,4.55
2023-09-20T01:20:42.154Z,4.30
2023-09-20T01:23:09.493Z,4.00
2023-09-20T01:25:41.190Z,4.30
2023-09-20T01:28:11.434Z,4.40
2023-09-20T01:30:42.606Z,4.35
2023-09-20T01:33:10.190Z,4.07
2023-09-20T01:35:38.460Z,4.40
2023-09-20T01:38:06.292Z,3.92
2023-09-20T01:40:35.070Z,4.00
2023-09-20T01:43:06.931Z,4.40
2023-09-20T01:45:38.137Z,4.25
2023-09-20T01:48:12.045Z,4.30
2023-09-20T01:50:42.911Z,4.10
2023-09-20T01:53:12.302Z,4.05
2023-09-20T01:55:43.800Z,4.30
2023-09-20T01:58:14.019Z,4.22
2023-09-20T02:00:42.144Z,3.80
2023-09-20T02:03:15.322Z,3.90
2023-09-20T02:05:43.163Z,4.03
2023-09-20T02:08:10.210Z,4.40
2023-09-20T02:10:39.112Z,4.57
2023-09-20T02:13:07.504Z,4.47
2023-09-20T02:15:35.937Z,4.10
2023-09-20T02:18:07.406Z,4.38
2023-09-20T02:20:38.034Z,4.20
2023-09-20T02:23:07.848Z,4.53
2023-09-20T02:25:34.948Z,4.40
2023-09-20T02:28:02.583Z,5.03
2023-09-20T02:30:33.003Z,4.55
2023-09-20T02:33:01.307Z,4.95
2023-09-20T02:35:31.053Z,5.00
2023-09-20T02:38:01.129Z,4.47
2023-09-20T02:40:28.490Z,4.88
2023-09-20T02:43:01.054Z,4.90
2023-09-20T02:45:30.494Z,4.45
2023-09-20T02:48:08.665Z,5.10
2023-09-20T02:50:36.314Z,5.07
2023-09-20T02:53:04.964Z,5.20
2023-09-20T02:55:35.010Z,4.80
2023-09-20T02:58:01.903Z,4.82
2023-09-20T03:00:32.527Z,5.07
2023-09-20T03:03:03.203Z,4.78
2023-09-20T03:05:35.829Z,5.00
2023-09-20T03:08:06.164Z,4.87
2023-09-20T03:10:39.676Z,5.07
2023-09-20T03:13:12.065Z,4.80
2023-09-20T03:15:46.067Z,5.17
2023-09-20T03:18:14.755Z,4.90
2023-09-20T03:20:45.678Z,5.53
2023-09-20T03:23:14.441Z,5.38
2023-09-20T03:25:42.105Z,5.05
2023-09-20T03:28:09.707Z,4.78
2023-09-20T03:30:40.842Z,5.30
2023-09-20T03:33:12.554Z,5.07
2023-09-20T03:35:39.804Z,5.85
2023-09-20T03:38:07.127Z,5.25
2023-09-20T03:40:34.108Z,4.72
2023-09-20T03:43:04.425Z,5.32
2023-09-20T03:45:31.424Z,5.10
2023-09-20T03:47:59.271Z,5.10
2023-09-20T03:50:27.198Z,5.80
2023-09-20T03:52:54.616Z,5.53
2023-09-20T03:55:23.904Z,5.88
2023-09-20T03:57:50.866Z,5.15
2023-09-20T04:00:29.759Z,5.47
2023-09-20T04:02:58.345Z,5.80
2023-09-20T04:07:56.120Z,5.28
2023-09-20T04:10:23.066Z,5.40
2023-09-20T04:12:50.000Z,5.25
2023-09-20T04:15:18.327Z,5.93
2023-09-20T04:17:45.680Z,6.80
2023-09-20T04:20:13.617Z,5.68
2023-09-20T04:22:42.396Z,6.95
2023-09-20T04:25:13.727Z,5.88
2023-09-20T04:27:42.472Z,6.40
2023-09-20T04:30:09.882Z,7.63
2023-09-20T04:32:37.492Z,9.25
2023-09-20T04:35:05.859Z,6.32
2023-09-20T04:37:33.002Z,5.88
2023-09-20T04:40:00.256Z,6.13
2023-09-20T04:42:29.085Z,6.88
2023-09-20T04:44:56.025Z,5.60
2023-09-20T04:47:22.977Z,7.70
2023-09-20T04:49:49.926Z,10.38
2023-09-20T04:52:17.030Z,6.35
2023-09-20T04:54:45.899Z,5.97
2023-09-20T04:57:15.605Z,6.38
2023-09-20T04:59:43.328Z,5.68
2023-09-20T05:02:12.100Z,5.60
2023-09-20T05:04:39.790Z,5.47
2023-09-20T05:07:06.850Z,5.97
2023-09-20T05:09:36.557Z,5.88
2023-09-20T05:12:05.077Z,5.85
2023-09-20T05:14:32.400Z,5.60
2023-09-20T05:16:59.410Z,5.55
2023-09-20T05:19:26.724Z,5.68
2023-09-20T05:21:53.983Z,6.45
2023-09-20T05:24:20.851Z,5.55
2023-09-20T05:26:47.880Z,5.80
2023-09-20T05:29:14.801Z,5.00
2023-09-20T05:31:41.826Z,5.10
2023-09-20T05:34:08.716Z,4.97
2023-09-20T05:36:36.730Z,5.28
2023-09-20T05:39:07.376Z,5.07
2023-09-20T05:41:35.422Z,5.63
2023-09-20T05:44:02.622Z,4.68
2023-09-20T05:46:29.588Z,4.45
2023-09-20T05:48:56.466Z,4.60
2023-09-20T05:51:23.412Z,4.60
2023-09-20T05:53:52.831Z,4.80
2023-09-20T05:56:20.952Z,4.60
2023-09-20T05:58:48.395Z,4.35
2023-09-20T06:01:19.375Z,4.53
2023-09-20T06:03:48.025Z,4.63
2023-09-20T06:06:15.681Z,6.38
2023-09-20T06:08:44.148Z,4.72
2023-09-20T06:11:12.098Z,4.05
2023-09-20T06:13:39.790Z,4.07
2023-09-20T06:16:10.496Z,4.40
2023-09-20T06:18:38.361Z,4.13
2023-09-20T06:21:09.950Z,4.85
2023-09-20T06:23:37.237Z,4.13
2023-09-20T06:26:13.607Z,6.03
2023-09-20T06:28:43.585Z,4.03
2023-09-20T06:31:16.987Z,4.20
2023-09-20T06:33:49.881Z,4.60
2023-09-20T06:36:22.063Z,4.13
2023-09-20T06:38:51.239Z,3.83
2023-09-20T06:41:19.248Z,3.72
2023-09-20T06:43:46.234Z,4.25
2023-09-20T06:46:13.334Z,4.25
2023-09-20T06:48:40.353Z,3.97
2023-09-20T06:51:07.547Z,4.13
2023-09-20T06:53:34.568Z,4.18
2023-09-20T06:56:01.746Z,3.63
2023-09-20T06:58:29.741Z,3.80
2023-09-20T07:00:57.368Z,3.92
2023-09-20T07:03:24.828Z,3.38
2023-09-20T07:05:53.191Z,6.13
2023-09-20T07:08:22.765Z,3.58
2023-09-20T07:10:52.021Z,3.58
2023-09-20T07:13:20.832Z,3.60
2023-09-20T07:15:48.127Z,3.70
2023-09-20T07:18:15.758Z,3.70
2023-09-20T07:20:44.997Z,3.70
2023-09-20T07:23:14.981Z,3.40
2023-09-20T07:25:44.077Z,3.28
2023-09-20T07:28:11.145Z,3.65
2023-09-20T07:30:46.585Z,3.10
2023-09-20T07:33:20.371Z,3.45
2023-09-20T07:35:49.562Z,3.40
2023-09-20T07:38:28.996Z,3.50
2023-09-20T07:41:18.737Z,3.05
2023-09-20T07:43:46.564Z,3.17
2023-09-20T07:46:17.870Z,3.42
2023-09-20T07:48:53.893Z,3.47
2023-09-20T07:51:21.877Z,3.30
2023-09-20T07:53:56.176Z,3.40
2023-09-20T07:56:23.972Z,5.00
2023-09-20T07:58:53.171Z,3.20
2023-09-20T08:01:21.436Z,3.28
2023-09-20T08:03:54.219Z,3.28
2023-09-20T08:06:24.997Z,3.40
2023-09-20T08:08:52.232Z,2.97
2023-09-20T08:11:21.750Z,3.20
2023-09-20T08:13:57.494Z,4.20
2023-09-20T08:16:37.918Z,4.32
2023-09-20T08:19:16.532Z,3.10
2023-09-20T08:21:44.989Z,3.65
2023-09-20T08:24:30.705Z,3.50
2023-09-20T08:27:16.268Z,3.22
2023-09-20T08:30:01.844Z,2.97
2023-09-20T08:32:47.576Z,3.22
2023-09-20T08:35:51.828Z,3.00
2023-09-20T08:38:37.417Z,3.08
2023-09-20T08:41:23.033Z,3.20
2023-09-20T08:44:08.546Z,3.33
2023-09-20T08:46:58.316Z,3.17
2023-09-20T08:49:50.288Z,3.30
2023-09-20T08:52:40.424Z,2.95
2023-09-20T08:55:28.121Z,3.10
2023-09-20T08:58:15.505Z,2.92
2023-09-20T09:00:47.757Z,3.40
2023-09-20T09:03:17.209Z,3.37
2023-09-20T09:05:44.406Z,3.40
2023-09-20T09:08:11.820Z,15.05
2023-09-20T09:10:38.758Z,2.92
2023-09-20T09:13:05.933Z,3.17
2023-09-20T09:15:32.905Z,3.03
2023-09-20T09:17:59.902Z,3.05
2023-09-20T09:20:30.937Z,3.20
2023-09-20T09:22:58.254Z,2.90
2023-09-20T09:25:33.025Z,2.97
2023-09-20T09:28:01.190Z,3.13
2023-09-20T09:30:28.609Z,3.35
2023-09-20T09:32:55.835Z,2.97
2023-09-20T09:35:40.064Z,4.28
2023-09-20T09:38:13.682Z,3.28
2023-09-20T09:40:58.430Z,3.20
2023-09-20T09:43:30.898Z,3.33
2023-09-20T09:46:11.240Z,2.92
2023-09-20T09:48:39.260Z,3.78
2023-09-20T09:51:08.023Z,3.97
2023-09-20T09:53:38.233Z,3.55
2023-09-20T09:56:07.504Z,2.92
2023-09-20T09:58:35.233Z,3.10
2023-09-20T10:01:07.354Z,2.90
2023-09-20T10:03:41.986Z,2.97
2023-09-20T10:06:23.521Z,3.50
2023-09-20T10:08:55.818Z,3.58
2023-09-20T10:11:25.318Z,3.00
2023-09-20T10:13:55.041Z,2.90
2023-09-20T10:16:23.601Z,3.20
2023-09-20T10:18:56.882Z,2.80
2023-09-20T10:21:27.976Z,2.85
2023-09-20T10:24:02.057Z,3.40
2023-09-20T10:26:30.540Z,3.25
2023-09-20T10:29:26.097Z,3.20
2023-09-20T10:32:09.766Z,4.32
2023-09-20T10:34:38.966Z,2.80
2023-09-20T10:37:11.996Z,3.42
2023-09-20T10:39:47.933Z,3.60
2023-09-20T10:42:18.091Z,2.50
2023-09-20T10:44:45.332Z,2.60
2023-09-20T10:47:16.351Z,2.65
2023-09-20T10:49:56.624Z,2.80
2023-09-20T10:52:33.805Z,4.80
2023-09-20T10:55:24.417Z,5.78
2023-09-20T10:57:53.083Z,2.85
2023-09-20T11:00:26.420Z,2.47
2023-09-20T11:02:53.986Z,3.03
2023-09-20T11:05:22.620Z,3.63
2023-09-20T11:07:51.880Z,2.63
2023-09-20T11:10:20.462Z,3.95
2023-09-20T11:12:47.893Z,8.48
2023-09-20T11:15:15.698Z,8.95
2023-09-20T11:17:43.302Z,2.45
2023-09-20T11:20:13.123Z,2.70
2023-09-20T11:22:40.393Z,2.38
2023-09-20T11:25:08.291Z,2.80
2023-09-20T11:27:36.487Z,2.42
2023-09-20T11:30:09.968Z,2.53
2023-09-20T11:32:40.675Z,2.65
2023-09-20T11:35:09.049Z,2.08
2023-09-20T11:37:36.831Z,2.13
2023-09-20T11:40:06.066Z,2.60
2023-09-20T11:42:36.015Z,2.47
2023-09-20T11:47:44.056Z,4.53
2023-09-20T11:50:16.040Z,2.00
2023-09-20T11:52:50.638Z,2.10
2023-09-20T11:55:20.732Z,2.40
2023-09-20T11:57:49.012Z,2.40
2023-09-20T12:00:21.289Z,3.05
2023-09-20T12:02:49.401Z,2.60
2023-09-20T12:05:23.082Z,2.08
2023-09-20T12:10:31.144Z,3.38
2023-09-20T12:12:59.086Z,2.40
2023-09-20T12:15:26.480Z,3.63
2023-09-20T12:17:58.589Z,1.98
2023-09-20T12:20:27.514Z,2.20
2023-09-20T12:22:57.063Z,2.10
2023-09-20T12:25:24.061Z,2.22
2023-09-20T12:27:51.147Z,2.22
2023-09-20T12:30:19.165Z,2.05
2023-09-20T12:32:47.676Z,2.30
2023-09-20T12:35:14.976Z,2.78
2023-09-20T12:37:42.065Z,1.92
2023-09-20T12:40:10.084Z,1.80
2023-09-20T12:42:38.707Z,4.55
2023-09-20T12:45:10.352Z,4.43
2023-09-20T12:47:41.794Z,2.25
2023-09-20T12:50:14.486Z,2.25
2023-09-20T12:52:46.154Z,2.25
2023-09-20T12:55:15.046Z,2.28
2023-09-20T12:57:48.349Z,2.00
2023-09-20T13:00:23.534Z,2.30
2023-09-20T13:02:58.714Z,2.30
2023-09-20T13:05:26.634Z,2.33
2023-09-20T13:07:53.623Z,1.90
2023-09-20T13:10:20.893Z,3.00
2023-09-20T13:12:49.271Z,4.00
2023-09-20T13:15:18.848Z,2.45
2023-09-20T13:17:49.373Z,2.40
2023-09-20T13:20:16.978Z,2.33
2023-09-20T13:22:44.307Z,2.35
2023-09-20T13:25:17.094Z,1.83
2023-09-20T13:27:45.023Z,2.00
2023-09-20T13:30:13.411Z,2.15
2023-09-20T13:32:41.629Z,2.20
2023-09-20T13:35:12.295Z,1.98
2023-09-20T13:37:46.300Z,3.35
2023-09-20T13:40:16.600Z,2.60
2023-09-20T13:42:45.733Z,2.30
2023-09-20T13:45:15.494Z,2.88
2023-09-20T13:47:43.476Z,2.20
2023-09-20T13:50:17.449Z,2.38
2023-09-20T13:52:45.410Z,1.90
2023-09-20T13:55:25.885Z,2.10
2023-09-20T13:58:00.171Z,2.20
2023-09-20T14:00:30.001Z,2.40
2023-09-20T14:02:58.623Z,1.98
2023-09-20T14:05:27.872Z,2.20
2023-09-20T14:07:58.966Z,2.67
2023-09-20T14:10:36.474Z,3.08
2023-09-20T14:13:03.587Z,2.13
2023-09-20T14:15:31.140Z,4.82
2023-09-20T14:18:00.064Z,4.05
2023-09-20T14:20:29.200Z,2.03
2023-09-20T14:22:56.946Z,2.42
2023-09-20T14:25:25.872Z,3.70
2023-09-20T14:27:55.236Z,4.05
2023-09-20T14:30:22.408Z,1.90
2023-09-20T14:32:57.037Z,2.90
2023-09-20T14:35:25.346Z,2.15
2023-09-20T14:37:55.351Z,2.08
2023-09-20T14:40:25.615Z,2.05
2023-09-20T14:42:56.651Z,2.20
2023-09-20T14:45:32.169Z,2.60
2023-09-20T14:48:02.424Z,2.55
2023-09-20T14:50:31.149Z,2.75
2023-09-20T14:52:58.407Z,3.10
2023-09-20T14:55:27.879Z,2.20
2023-09-20T14:57:57.308Z,2.00
2023-09-20T15:00:26.459Z,1.92
2023-09-20T15:02:56.737Z,3.08
2023-09-20T15:05:26.060Z,1.80
2023-09-20T15:07:55.592Z,2.08
2023-09-20T15:10:26.025Z,2.67
2023-09-20T15:13:02.561Z,2.30
2023-09-20T15:15:32.067Z,2.40
2023-09-20T15:18:00.155Z,1.70
2023-09-20T15:20:29.854Z,2.10
2023-09-20T15:22:58.231Z,4.25
2023-09-20T15:25:26.492Z,1.95
2023-09-20T15:27:56.407Z,2.33
2023-09-20T15:30:24.516Z,2.00
2023-09-20T15:32:52.415Z,1.73
2023-09-20T15:35:19.939Z,1.80
2023-09-20T15:37:49.091Z,1.80
2023-09-20T15:40:18.418Z,1.70
2023-09-20T15:42:48.510Z,2.20
2023-09-20T15:45:20.348Z,1.90
2023-09-20T15:47:48.404Z,3.42
2023-09-20T15:50:16.221Z,1.95
2023-09-20T15:52:43.374Z,2.15
2023-09-20T15:55:16.193Z,2.00
2023-09-20T15:57:44.445Z,1.90
2023-09-20T16:00:15.030Z,2.03
2023-09-20T16:02:43.686Z,1.95
2023-09-20T16:05:11.488Z,1.85
2023-09-20T16:07:41.496Z,2.15
2023-09-20T16:10:15.278Z,2.35
2023-09-20T16:12:46.628Z,10.57
2023-09-20T16:15:16.882Z,2.85
2023-09-20T16:17:44.424Z,3.00
2023-09-20T16:20:12.408Z,2.10
2023-09-20T16:22:39.342Z,1.98
2023-09-20T16:25:08.006Z,2.40
2023-09-20T16:27:35.327Z,2.72
2023-09-20T16:30:03.008Z,2.80
2023-09-20T16:32:30.149Z,2.90
2023-09-20T16:34:57.118Z,4.22
2023-09-20T16:37:24.241Z,2.88
2023-09-20T16:39:51.349Z,2.60
2023-09-20T16:42:18.371Z,2.20
2023-09-20T16:44:45.455Z,4.05
2023-09-20T16:47:13.619Z,2.90
2023-09-20T16:49:40.608Z,3.88
2023-09-20T16:52:08.169Z,3.85
2023-09-20T16:54:35.407Z,4.13
2023-09-20T16:57:02.359Z,3.55
2023-09-20T16:59:30.598Z,5.22
2023-09-20T17:01:57.994Z,5.53
2023-09-20T17:04:27.150Z,10.80
2023-09-20T17:06:54.180Z,5.93
2023-09-20T17:09:24.270Z,6.03
2023-09-20T17:11:51.757Z,6.05
2023-09-20T17:14:19.364Z,5.85
2023-09-20T17:16:46.369Z,11.35
2023-09-20T17:19:13.452Z,18.08
2023-09-20T17:21:41.752Z,20.48
2023-09-20T17:24:10.751Z,16.08
2023-09-20T17:26:39.021Z,15.20
2023-09-20T17:29:06.408Z,4.97
2023-09-20T17:31:33.899Z,4.88
2023-09-20T17:34:01.065Z,5.22
2023-09-20T17:36:28.064Z,2.83
2023-09-20T17:38:55.053Z,2.92
2023-09-20T17:41:23.640Z,2.83
2023-09-20T17:43:54.510Z,2.92
2023-09-20T17:46:21.688Z,2.53
2023-09-20T17:48:48.795Z,2.50
2023-09-20T17:51:15.759Z,3.13
2023-09-20T17:53:43.036Z,3.38
2023-09-20T17:56:10.416Z,3.13
2023-09-20T17:58:37.320Z,4.35
2023-09-20T18:01:06.119Z,7.28
2023-09-20T18:03:35.664Z,8.52
2023-09-20T18:06:04.060Z,5.80
2023-09-20T18:08:31.582Z,4.72
2023-09-20T18:10:58.598Z,4.05
2023-09-20T18:13:29.257Z,4.35
2023-09-20T18:15:56.152Z,3.65
2023-09-20T18:18:23.450Z,3.50
2023-09-20T18:20:56.896Z,3.30
2023-09-20T18:23:28.140Z,2.72
2023-09-20T18:25:58.046Z,3.22
2023-09-20T18:28:28.772Z,3.00
2023-09-20T18:30:55.874Z,3.47
2023-09-20T18:33:22.980Z,3.53
2023-09-20T18:35:50.928Z,4.22
2023-09-20T18:38:18.471Z,4.22
2023-09-20T18:40:46.068Z,4.25
2023-09-20T18:43:15.280Z,3.42
2023-09-20T18:45:44.230Z,3.80
2023-09-20T18:48:11.961Z,4.07
2023-09-20T18:50:53.482Z,3.40
2023-09-20T18:53:25.451Z,3.60
2023-09-20T18:55:56.828Z,3.58
2023-09-20T18:58:26.949Z,3.53
2023-09-20T19:00:54.046Z,3.17
2023-09-20T19:03:28.446Z,3.55
2023-09-20T19:05:56.140Z,3.50
2023-09-20T19:08:23.154Z,3.17
2023-09-20T19:10:50.163Z,3.63
2023-09-20T19:13:17.104Z,4.45
2023-09-20T19:15:43.998Z,4.70
2023-09-20T19:18:12.968Z,5.60
2023-09-20T19:20:40.280Z,7.85
2023-09-20T19:23:08.019Z,5.35
2023-09-20T19:25:35.835Z,5.38
2023-09-20T19:28:03.027Z,5.15
2023-09-20T19:30:34.453Z,4.88
2023-09-20T19:33:06.487Z,4.15
2023-09-20T19:35:36.331Z,3.47
2023-09-20T19:38:03.773Z,3.60
2023-09-20T19:40:32.171Z,5.97
2023-09-20T19:42:59.392Z,5.53
2023-09-20T19:45:27.833Z,4.72
2023-09-20T19:47:56.002Z,4.13
2023-09-20T19:50:23.822Z,3.40
2023-09-20T19:52:53.793Z,3.67
2023-09-20T19:55:28.240Z,2.92
2023-09-20T19:57:57.905Z,3.00
2023-09-20T20:00:26.629Z,2.90
2023-09-20T20:03:01.724Z,2.70
2023-09-20T20:05:29.125Z,3.22
2023-09-20T20:08:00.120Z,3.10
2023-09-20T20:10:28.796Z,2.67
2023-09-20T20:13:00.635Z,2.80
2023-09-20T20:15:31.456Z,2.72
2023-09-20T20:17:59.457Z,3.05
2023-09-20T20:20:30.568Z,2.85
2023-09-20T20:23:00.109Z,2.78
2023-09-20T20:25:35.550Z,2.85
2023-09-20T20:28:13.185Z,2.90
2023-09-20T20:30:41.512Z,3.30
2023-09-20T20:33:09.458Z,3.15
2023-09-20T20:35:36.759Z,3.30
2023-09-20T20:38:04.209Z,3.03
2023-09-20T20:40:31.532Z,3.10
2023-09-20T20:42:59.393Z,3.25
2023-09-20T20:45:27.264Z,3.30
2023-09-20T20:47:55.360Z,3.17
2023-09-20T20:50:30.048Z,4.22
2023-09-20T20:53:00.107Z,3.90
2023-09-20T20:55:29.681Z,4.20
2023-09-20T20:58:10.651Z,4.78
2023-09-20T21:00:39.713Z,5.00
2023-09-20T21:03:11.153Z,5.25
2023-09-20T21:05:38.671Z,5.28
2023-09-20T21:08:06.347Z,4.78
2023-09-20T21:10:38.707Z,4.68
2023-09-20T21:13:13.658Z,4.85
2023-09-20T21:15:47.904Z,4.35
2023-09-20T21:18:20.019Z,4.97
2023-09-20T21:20:50.531Z,4.82
2023-09-20T21:23:18.715Z,4.80
2023-09-20T21:25:47.111Z,4.57
2023-09-20T21:28:14.551Z,5.00
2023-09-20T21:30:41.745Z,4.63
2023-09-20T21:33:10.315Z,4.68
2023-09-20T21:35:38.367Z,4.68
2023-09-20T21:38:08.802Z,4.50
2023-09-20T21:40:39.610Z,5.03
2023-09-20T21:43:10.120Z,5.05
2023-09-20T21:45:38.885Z,5.10
2023-09-20T21:48:07.570Z,5.10
2023-09-20T21:50:36.027Z,4.68
2023-09-20T21:53:05.125Z,4.40
2023-09-20T21:55:34.624Z,4.80
2023-09-20T21:58:01.761Z,5.47
2023-09-20T22:00:28.744Z,5.32
2023-09-20T22:03:02.193Z,4.90
2023-09-20T22:05:29.769Z,5.20
2023-09-20T22:07:59.204Z,5.20
2023-09-20T22:10:27.324Z,4.80
2023-09-20T22:12:56.370Z,4.80
2023-09-20T22:15:27.816Z,4.78
2023-09-20T22:18:00.320Z,5.00
2023-09-20T22:20:33.475Z,4.90
2023-09-20T22:25:36.035Z,4.55
2023-09-20T22:28:03.152Z,4.40
2023-09-20T22:30:30.060Z,4.70
2023-09-20T22:32:58.910Z,4.38
2023-09-20T22:35:26.172Z,4.50
2023-09-20T22:37:59.116Z,4.50
2023-09-20T22:40:26.037Z,4.35
2023-09-20T22:42:53.614Z,4.50
2023-09-20T22:45:23.555Z,4.63
2023-09-20T22:47:59.229Z,4.68
2023-09-20T22:50:29.892Z,4.78
2023-09-20T22:53:06.822Z,4.65
2023-09-20T22:55:40.364Z,4.85
2023-09-20T22:58:14.527Z,4.82
2023-09-20T23:00:47.612Z,4.80
2023-09-20T23:03:26.122Z,5.13
2023-09-20T23:05:53.935Z,5.47
2023-09-20T23:08:21.095Z,5.65
2023-09-20T23:10:53.232Z,5.40
2023-09-20T23:13:22.879Z,4.55
2023-09-20T23:15:55.276Z,4.72
2023-09-20T23:18:25.795Z,4.93
2023-09-20T23:20:55.650Z,4.70
2023-09-20T23:23:25.890Z,4.68
2023-09-20T23:25:55.225Z,5.40
2023-09-20T23:28:24.464Z,4.55
2023-09-20T23:30:58.904Z,5.40
2023-09-20T23:33:29.186Z,4.70
2023-09-20T23:35:58.683Z,4.97
2023-09-20T23:38:31.273Z,4.78
2023-09-20T23:41:15.502Z,5.07
2023-09-20T23:43:47.420Z,5.00
2023-09-20T23:46:21.100Z,4.95
2023-09-20T23:48:50.381Z,4.90
2023-09-20T23:51:17.685Z,4.97
2023-09-20T23:53:44.703Z,5.18
2023-09-20T23:56:18.446Z,4.88
2023-09-20T23:58:46.577Z,5.40
